Monday, January 21, 2019, 5:48 PM EST
Back to Local

KITH, Ithaca, Ithaca Tompkins Regional Airport

Location: Ithaca, NY, United States Lat: 42.491
Local Time: 5:48 PM EST (22:48 GMT) Lon: -76.458
Time Zone: US/Eastern Elev: 1099 ft

Show me the last for .
Show Decoded

2019-01-21 16:56 METAR KITH 212156Z 30019G31KT 7SM R32/4500VP6000FT BLSN BKN020 BKN028 M15/M18
                 A3029 RMK AO2 PK WND 29031/2147 SNE52 SLP288 P0000 T11501178 =
2019-01-21 15:56 METAR KITH 212056Z 31025G31KT 5SM R32/2600VP6000FT -SN BLSN OVC018 M16/M18 A3027
                 RMK AO2 PK WND 31033/2020 SLP281 P0000 60000 T11561183 53026 =
2019-01-21 14:56 METAR KITH 211956Z 31018G26KT 6SM R32/3500VP6000FT -SN BLSN OVC016 M17/M20 A3023
                 RMK AO2 PK WND 31034/1946 SLP269 P0000 T11671200 =
2019-01-21 13:56 METAR KITH 211856Z 30025G29KT 1/2SM R32/1800V2800FT SN BLSN OVC012 M17/M19 A3021
                 RMK AO2 PK WND 31030/1839 SLP262 P0000 T11671189 =
2019-01-21 12:56 METAR KITH 211756Z 31024G30KT 1/4SM R32/2000V4000FT +SN BLSN OVC012 M17/M19
                 A3019 RMK AO2 PK WND 30032/1703 SLP252 P0000 60000 T11721194 11172 21200 51021 =
2019-01-21 11:56 METAR KITH 211656Z 31024G30KT 1/2SM R32/2200V5500FT SN BLSN OVC014 M18/M21 A3017
                 RMK AO2 PK WND 30031/1635 SLP245 P0000 T11781206 =
2019-01-21 10:56 METAR KITH 211556Z 30018G28KT 1/2SM R32/3500VP6000FT SN BLSN OVC012 M18/M21
                 A3016 RMK AO2 PK WND 28032/1540 SLP244 P0000 T11831206 =
2019-01-21 09:56 METAR KITH 211456Z 29024G27KT 1SM R32/2600V5500FT -SN BLSN OVC012 M19/M21 A3013
                 RMK AO2 PK WND 29029/1423 SLP231 P0000 60000 T11891211 53035 =
2019-01-21 08:56 METAR KITH 211356Z 30022G27KT 1SM R32/3500V4500FT -SN BR OVC012 M19/M22 A3009
                 RMK AO2 PK WND 29029/1341 SLP218 P0000 T11941217 =
2019-01-21 07:56 METAR KITH 211256Z 29022G26KT 1SM R32/6000VP6000FT -SN BR OVC014 M20/M22 A3004
                 RMK AO2 PK WND 30026/1255 SLP203 P0000 T12001222 =
2019-01-21 06:56 METAR KITH 211156Z 29019G25KT 1 1/2SM R32/5000VP6000FT -SN BR OVC014 M20/M22
                 A3002 RMK AO2 PK WND 29028/1141 SLP194 P0000 60000 T12001222 11194 21206 53021 =
2019-01-21 06:30 METAR KITH 211130Z 29019G24KT 2SM -SN OVC014 M20/M23 A3000 RMK AO2 P0000 =
2019-01-21 06:11 METAR KITH 211111Z AUTO 30013G22KT 2 1/2SM -SN BR OVC014 M21/M23 A3000 RMK AO2
                 P0000 =
2019-01-21 05:56 METAR KITH 211056Z AUTO 30017G23KT 3SM -SN BR OVC014 M21/M23 A2999 RMK AO2 PK
                 WND 29026/1009 SLP183 P0000 T12061228 =
2019-01-21 05:19 METAR KITH 211019Z AUTO 29017G25KT 2 1/2SM -SN BR OVC014 M21/M23 A2997 RMK AO2
                 PK WND 29026/1009 VIS 1 1/2V5 P0000 =
2019-01-21 05:11 METAR KITH 211011Z AUTO 29020G26KT 1 3/4SM -SN BR OVC014 M21/M23 A2997 RMK AO2
                 PK WND 29026/1009 VIS 1V3 P0000 =
2019-01-21 04:56 METAR KITH 210956Z AUTO 29021G26KT 1 3/4SM -SN OVC016 M21/M23 A2997 RMK AO2 PK
                 WND 30030/0908 VIS 1 1/4V2 1/2 SLP175 P0000 T12061233 =
2019-01-21 04:40 METAR KITH 210940Z AUTO 29021G28KT 1 1/2SM -SN OVC016 M21/M23 A2996 RMK AO2 PK
                 WND 30030/0908 VIS 3/4V3 P0000 =
2019-01-21 04:30 METAR KITH 210930Z AUTO 29020G26KT 2 1/2SM -SN OVC016 M21/M23 A2996 RMK AO2 PK
                 WND 30030/0908 VIS 1 1/2V4 P0000 =
2019-01-21 04:22 METAR KITH 210922Z AUTO 29020G25KT 1 3/4SM -SN OVC016 M21/M23 A2996 RMK AO2 PK
                 WND 30030/0908 VIS 3/4V4 P0000 =
2019-01-21 04:05 METAR KITH 210905Z AUTO 29020G25KT 2SM HZ OVC016 M21/M23 A2996 RMK AO2 VIS 1
                 1/4V4 SNE01 P0000 =
2019-01-21 03:56 METAR KITH 210856Z AUTO 29020G30KT 1 3/4SM -SN OVC016 M21/M23 A2996 RMK AO2 PK
                 WND 29030/0848 VIS 1V3 SLP172 P0000 60000 T12061233 53012 =
2019-01-21 03:22 METAR KITH 210822Z AUTO 29021G29KT 1 1/2SM -SN OVC016 M21/M23 A2994 RMK AO2 PK
                 WND 28030/0808 P0000 =
2019-01-21 03:11 METAR KITH 210811Z AUTO 28020G30KT 2SM -SN OVC016 M20/M23 A2995 RMK AO2 PK WND
                 28030/0808 VIS 1V5 P0000 =
2019-01-21 02:56 METAR KITH 210756Z AUTO 29018G31KT 1 3/4SM -SN OVC016 M20/M23 A2995 RMK AO2 PK
                 WND 28032/0707 VIS 3/4V4 SLP168 P0000 T12001228 =
2019-01-21 02:30 METAR KITH 210730Z AUTO 30018G28KT 2SM -SN OVC016 M20/M23 A2994 RMK AO2 PK WND
                 28032/0707 P0000 =
2019-01-21 01:56 METAR KITH 210656Z AUTO 28021G27KT 1 1/2SM -SN OVC016 M19/M22 A2992 RMK AO2 PK
                 WND 29033/0620 VIS 1V2 1/2 SLP158 P0000 T11941222 =
2019-01-21 01:54 METAR KITH 210654Z AUTO 29022G27KT 1 1/4SM -SN OVC016 M19/M22 A2992 RMK AO2 PK
                 WND 29033/0620 P0000 =
2019-01-21 01:24 METAR KITH 210624Z AUTO 28021G33KT 1SM R32/6000VP6000FT -SN OVC016 M19/M22 A2989
                 RMK AO2 PK WND 29033/0620 P0000 =
2019-01-21 01:19 METAR KITH 210619Z AUTO 29025G32KT 3/4SM R32/6000VP6000FT -SN OVC014 M19/M22
                 A2989 RMK AO2 PK WND 29032/0619 P0000 =
2019-01-21 00:56 METAR KITH 210556Z AUTO 30016G30KT 1 1/4SM R32/5500VP6000FT -SN BR OVC014
                 M18/M21 A2989 RMK AO2 PK WND 28032/0534 SLP149 P0000 60000 T11831206 11144 21183
                 53010 =
2019-01-21 00:46 METAR KITH 210546Z AUTO 30020G28KT 1SM R32/P6000FT -SN BR OVC014 M18/M21 A2989
                 RMK AO2 PK WND 28032/0534 P0000 =
2019-01-21 00:33 METAR KITH 210533Z AUTO 29022G26KT 1 1/2SM -SN OVC012 M18/M21 A2988 RMK AO2 PK
                 WND 29028/0521 VIS 3/4V2 1/2 P0000 =
2019-01-21 00:21 METAR KITH 210521Z AUTO 30023G28KT 1SM -SN BR BKN012 OVC018 M18/M20 A2988 RMK
                 AO2 PK WND 29028/0521 P0000 RVRNO =
2019-01-20 23:56 METAR KITH 210456Z AUTO 30018KT 1 1/2SM -SN BR OVC012 M17/M19 A2988 RMK AO2 PK
                 WND 30027/0419 VIS 1V2 1/2 SLP143 P0000 T11721194 410611178 =
2019-01-20 23:08 METAR KITH 210408Z AUTO 30016G27KT 1 1/4SM R32/5000VP6000FT -SN BR OVC012
                 M17/M19 A2986 RMK AO2 PK WND 31027/0400 P0000 =
2019-01-20 22:56 METAR KITH 210356Z AUTO 31020G25KT 3/4SM R32/5500VP6000FT -SN BR OVC010 M17/M19
                 A2986 RMK AO2 SLP137 P0000 T11671189 =
2019-01-20 22:54 METAR KITH 210354Z AUTO 31019G24KT 3/4SM R32/5500VP6000FT -SN BR OVC010 M17/M19
                 A2986 RMK AO2 P0000 =
2019-01-20 22:47 METAR KITH 210347Z AUTO 32012G18KT 1SM R32/5000VP6000FT -SN BR OVC010 M17/M19
                 A2986 RMK AO2 CIG 007V013 P0000 =
2019-01-20 22:35 METAR KITH 210335Z AUTO 32015G20KT 3/4SM R32/4000V5000FT -SN BR OVC008 M17/M19
                 A2986 RMK AO2 CIG 007V012 P0000 =
2019-01-20 22:08 METAR KITH 210308Z AUTO 32015KT 3/4SM R32/5000VP6000FT -SN BR BKN010 OVC015
                 M18/M20 A2985 RMK AO2 P0000 =
2019-01-20 21:56 METAR KITH 210256Z 33014KT 1SM R32/5500VP6000FT -SN BR BKN013 OVC020 M18/M20
                 A2985 RMK AO2 SLP133 P0000 60000 T11781200 51017 =
2019-01-20 20:56 METAR KITH 210156Z 33019G24KT 1 3/4SM -SN BLSN BKN020 OVC027 M17/M19 A2984 RMK
                 AO2 PK WND 31031/0111 SLP129 P0000 T11671194 =
2019-01-20 19:56 METAR KITH 210056Z 31011G22KT 2SM -SN BLSN OVC012 M14/M17 A2981 RMK AO2 PK WND
                 30027/0023 VIS 1 1/2V3 SLP117 P0000 T11441167 =
2019-01-20 18:56 METAR KITH 202356Z 29018G27KT 2 1/2SM -SN BLSN OVC014 M14/M17 A2980 RMK AO2 PK
                 WND 29027/2349 SLP111 P0000 60000 T11441167 11133 21144 53030 =
2019-01-20 17:56 METAR KITH 202256Z 30021G29KT 1 3/4SM -SN BLSN BKN014 OVC021 M14/M16 A2976 RMK
                 AO2 PK WND 32031/2230 SLP097 P0000 T11391161 =

Support USWX by starting your Amazon purchase here.